Time;durP1;ratioP1;P1;durP2;ratioP2;P2;SDS_P1;SDS_P2;PMS_P1;PMS_P2;Temp;Humidity;BMP_temperature;BMP_pressure;BME280_temperature;BME280_humidity;BME280_pressure;Samples;Min_cycle;Max_cycle;Signal;HPM_P1;HPM_P2
2021/07/27 00:01:08;;;;;;;31.67;13.30;;;;;;;24.63;65.81;101718.08;1806248;79;21167;-71
2021/07/27 00:03:43;;;;;;;30.70;15.03;;;;;;;24.60;65.91;101723.58;1805872;79;21174;-71
2021/07/27 00:06:15;;;;;;;33.00;15.72;;;;;;;24.58;65.91;101720.25;1768050;81;21324;-70
2021/07/27 00:08:49;;;;;;;28.90;15.18;;;;;;;24.56;66.05;101717.69;1805885;79;21692;-70
2021/07/27 00:11:22;;;;;;;36.30;15.60;;;;;;;24.56;66.08;101721.95;1801659;79;21361;-70
2021/07/27 00:13:54;;;;;;;28.33;14.87;;;;;;;24.52;65.99;101719.53;1800186;80;21309;-74
2021/07/27 00:16:28;;;;;;;29.82;13.98;;;;;;;24.51;66.16;101717.02;1800117;80;21304;-74
2021/07/27 00:19:01;;;;;;;37.13;14.83;;;;;;;24.49;66.35;101712.22;1764542;81;21681;-70
2021/07/27 00:21:35;;;;;;;31.70;14.40;;;;;;;24.47;66.48;101713.14;1800055;80;21178;-76
2021/07/27 00:24:10;;;;;;;31.97;15.35;;;;;;;24.47;66.63;101715.41;1764627;81;21179;-72
2021/07/27 00:26:43;;;;;;;30.30;15.43;;;;;;;24.45;66.66;101712.64;1799902;80;21317;-69
2021/07/27 00:29:15;;;;;;;28.20;15.75;;;;;;;24.44;66.70;101710.98;1800138;80;21155;-76
2021/07/27 00:31:48;;;;;;;38.13;15.40;;;;;;;24.40;66.81;101707.11;1800280;80;21171;-70
2021/07/27 00:34:22;;;;;;;30.88;15.00;;;;;;;24.33;66.95;101706.75;1799886;80;21376;-70
2021/07/27 00:36:55;;;;;;;29.50;14.95;;;;;;;24.31;67.28;101704.83;1800435;80;21166;-70
2021/07/27 00:39:27;;;;;;;25.70;15.83;;;;;;;24.28;67.22;101708.30;1800110;80;21309;-69
2021/07/27 00:42:00;;;;;;;30.92;16.25;;;;;;;24.25;67.36;101711.81;1764845;81;21713;-70
2021/07/27 00:44:33;;;;;;;30.12;15.95;;;;;;;24.25;67.38;101714.66;1800188;80;21661;-66
2021/07/27 00:47:06;;;;;;;27.23;16.37;;;;;;;24.24;67.41;101707.27;1800281;80;21384;-69
2021/07/27 00:49:38;;;;;;;35.78;16.32;;;;;;;24.18;67.60;101707.16;1800143;80;21681;-68
2021/07/27 00:52:11;;;;;;;32.77;15.47;;;;;;;24.15;67.73;101710.67;1800045;80;21364;-69
2021/07/27 00:54:43;;;;;;;30.17;14.98;;;;;;;24.11;67.90;101709.63;1800173;79;21712;-68
2021/07/27 00:57:16;;;;;;;32.03;16.10;;;;;;;24.05;68.10;101715.20;1800121;80;21878;-74
2021/07/27 00:59:49;;;;;;;24.35;16.52;;;;;;;24.02;68.24;101713.02;1764667;81;21866;-69
2021/07/27 01:02:22;;;;;;;35.00;17.02;;;;;;;23.97;68.37;101714.00;1800117;80;21708;-70
2021/07/27 01:04:55;;;;;;;33.80;16.40;;;;;;;23.94;68.54;101706.69;1800118;80;21207;-77
2021/07/27 01:07:28;;;;;;;31.12;14.68;;;;;;;23.88;68.69;101713.09;1799912;80;21835;-69
2021/07/27 01:10:01;;;;;;;29.25;16.60;;;;;;;23.84;68.92;101708.37;1764762;81;21372;-68
2021/07/27 01:12:34;;;;;;;40.08;16.75;;;;;;;23.82;69.13;101707.83;1799818;79;21262;-69
2021/07/27 01:15:07;;;;;;;38.02;17.25;;;;;;;23.82;69.15;101707.83;1794909;80;21847;-69
2021/07/27 01:17:41;;;;;;;38.50;18.75;;;;;;;23.85;69.16;101702.95;1799822;80;21135;-67
2021/07/27 01:20:28;;;;;;;40.45;16.60;;;;;;;23.87;69.14;101701.50;1799985;80;21305;-69
2021/07/27 01:39:56;;;;;;;34.27;16.67;;;;;;;23.84;69.81;101694.18;1737811;82;21169;-72
2021/07/27 01:42:28;;;;;;;35.60;17.53;;;;;;;23.88;69.87;101696.64;1738072;82;21249;-71
2021/07/27 01:45:15;;;;;;;34.98;17.40;;;;;;;23.87;69.93;101692.98;1739726;80;21714;-72
2021/07/27 01:47:48;;;;;;;36.38;18.57;;;;;;;23.83;70.06;101692.51;1736439;82;21715;-71
2021/07/27 01:50:20;;;;;;;28.30;15.73;;;;;;;23.84;70.13;101694.18;1736783;82;21248;-72
2021/07/27 01:53:03;;;;;;;39.23;16.02;;;;;;;23.83;70.34;101700.42;1736584;82;21730;-70
2021/07/27 01:55:37;;;;;;;37.55;18.48;;;;;;;23.81;70.53;101702.76;1740487;81;21894;-71
2021/07/27 01:58:05;;;;;;;35.70;18.10;;;;;;;23.78;70.71;101702.57;1736450;81;21321;-71
2021/07/27 02:00:38;;;;;;;35.30;17.27;;;;;;;23.76;70.83;101702.03;1736641;82;21711;-71
2021/07/27 02:03:15;;;;;;;31.07;16.80;;;;;;;23.76;70.85;101698.63;1736783;82;21213;-71
2021/07/27 02:05:49;;;;;;;29.80;15.93;;;;;;;23.78;70.99;101701.97;1736427;82;21217;-72
2021/07/27 02:08:22;;;;;;;35.28;15.98;;;;;;;23.77;70.93;101705.16;1736453;82;21173;-70
2021/07/27 02:11:01;;;;;;;30.43;16.17;;;;;;;23.77;71.14;101694.63;1736447;81;21226;-71
2021/07/27 02:13:50;;;;;;;37.42;17.30;;;;;;;23.80;71.06;101700.23;1736783;82;21344;-71
2021/07/27 02:16:23;;;;;;;37.15;17.80;;;;;;;23.82;71.13;101698.75;1736782;82;21731;-70
2021/07/27 02:19:00;;;;;;;36.93;17.10;;;;;;;23.86;71.10;101696.10;1746559;81;21692;-70
2021/07/27 02:21:33;;;;;;;38.75;15.80;;;;;;;23.86;71.01;101693.27;1737001;82;21308;-70
2021/07/27 02:24:05;;;;;;;30.97;16.48;;;;;;;23.85;71.09;101700.11;1718649;83;21227;-72
2021/07/27 02:26:40;;;;;;;27.93;17.30;;;;;;;23.84;71.13;101694.18;1771360;81;21261;-72
2021/07/27 02:29:16;;;;;;;37.67;17.90;;;;;;;23.84;71.27;101699.86;1736910;82;21162;-77
2021/07/27 02:31:49;;;;;;;28.27;16.52;;;;;;;23.82;71.24;101702.16;1736818;82;21921;-72
2021/07/27 02:34:22;;;;;;;35.23;16.47;;;;;;;23.80;71.35;101701.09;1771579;79;21694;-76
2021/07/27 02:36:54;;;;;;;24.05;14.78;;;;;;;23.77;71.30;101706.58;1771270;81;21163;-71
2021/07/27 02:39:27;;;;;;;34.05;16.27;;;;;;;23.74;71.41;101697.27;1727165;82;21312;-73
2021/07/27 02:41:59;;;;;;;34.33;16.55;;;;;;;23.73;71.62;101701.28;1686061;85;21330;-70
2021/07/27 02:44:33;;;;;;;35.00;17.30;;;;;;;23.73;71.75;101702.70;1685405;85;21340;-71
2021/07/27 02:47:06;;;;;;;35.55;17.67;;;;;;;23.73;71.78;101698.44;1709912;84;21827;-71
2021/07/27 02:49:39;;;;;;;39.50;17.57;;;;;;;23.69;71.87;101699.67;1707906;84;21316;-71
2021/07/27 02:52:12;;;;;;;39.40;15.40;;;;;;;23.72;72.00;101706.70;1740810;82;21238;-80
2021/07/27 02:54:44;;;;;;;35.63;16.82;;;;;;;23.72;72.10;101701.84;1740948;82;21179;-71
2021/07/27 02:57:17;;;;;;;30.08;18.17;;;;;;;23.72;72.22;101702.45;1740541;82;21191;-71
2021/07/27 02:59:50;;;;;;;40.15;18.32;;;;;;;23.70;72.37;101708.44;1740925;81;21175;-71
2021/07/27 03:02:30;;;;;;;32.73;18.17;;;;;;;23.72;72.37;101709.54;1760907;81;21246;-73
2021/07/27 03:05:03;;;;;;;41.35;14.87;;;;;;;23.74;72.40;101715.72;1740777;81;21187;-71
2021/07/27 03:07:59;;;;;;;42.75;18.05;;;;;;;23.77;72.44;101712.25;1738370;81;21325;-78
2021/07/27 03:10:19;;;;;;;35.75;16.20;;;;;;;23.78;72.43;101714.73;1674253;85;21206;-70
2021/07/27 03:12:55;;;;;;;29.17;17.20;;;;;;;23.77;72.56;101718.75;1740825;81;21191;-71
2021/07/27 03:15:29;;;;;;;38.67;17.48;;;;;;;23.76;72.32;101717.07;1767606;81;21241;-71
2021/07/27 03:18:03;;;;;;;34.90;16.15;;;;;;;23.73;72.61;101722.56;1756991;81;21740;-71
2021/07/27 03:20:36;;;;;;;40.70;17.27;;;;;;;23.72;72.67;101727.98;1751208;82;21317;-78
2021/07/27 03:23:16;;;;;;;33.63;17.30;;;;;;;23.76;72.86;101726.16;1720446;82;21887;-71
2021/07/27 03:25:48;;;;;;;34.78;16.70;;;;;;;23.79;72.73;101722.69;1696239;84;21842;-71
2021/07/27 03:28:21;;;;;;;37.85;16.45;;;;;;;23.83;72.55;101723.72;1707065;82;21431;-73
2021/07/27 03:30:55;;;;;;;28.20;13.85;;;;;;;23.87;72.50;101721.89;1745397;82;21195;-71
2021/07/27 03:33:27;;;;;;;39.30;14.98;;;;;;;23.92;72.40;101726.05;1750893;82;21913;-72
2021/07/27 03:36:00;;;;;;;38.80;15.17;;;;;;;23.94;71.56;101728.83;1704291;83;21191;-71
2021/07/27 03:38:33;;;;;;;33.03;15.30;;;;;;;23.94;71.07;101727.41;1734552;83;21392;-71
2021/07/27 03:41:10;;;;;;;38.88;15.75;;;;;;;23.95;70.95;101727.66;1725980;82;21338;-71
2021/07/27 03:43:43;;;;;;;46.20;14.45;;;;;;;24.02;71.17;101729.45;1723105;83;21372;-71
2021/07/27 03:46:16;;;;;;;35.80;14.47;;;;;;;24.10;70.84;101723.58;1699652;84;21343;-71
2021/07/27 03:48:49;;;;;;;47.20;17.13;;;;;;;24.15;70.71;101737.64;1708643;84;21325;-70
2021/07/27 03:51:23;;;;;;;56.13;17.75;;;;;;;24.20;70.58;101737.51;1723491;82;21324;-71
2021/07/27 03:53:55;;;;;;;60.15;17.07;;;;;;;24.28;70.17;101736.70;1719323;83;21202;-79
2021/07/27 03:56:28;;;;;;;48.52;16.30;;;;;;;24.35;69.98;101739.34;1721316;83;21845;-71
2021/07/27 03:59:02;;;;;;;49.88;17.17;;;;;;;24.40;69.90;101736.93;1703422;83;21315;-72
2021/07/27 04:01:41;;;;;;;37.65;16.17;;;;;;;24.41;69.76;101735.19;1711984;83;21296;-83
2021/07/27 04:04:17;;;;;;;47.38;17.75;;;;;;;24.47;69.91;101738.71;1684286;85;21384;-72
2021/07/27 04:06:48;;;;;;;40.85;17.55;;;;;;;24.60;70.03;101739.21;1682908;85;21245;-72
2021/07/27 04:09:21;;;;;;;46.85;18.32;;;;;;;24.69;69.31;101735.84;1682923;85;21213;-74
2021/07/27 04:11:53;;;;;;;48.57;17.70;;;;;;;24.74;69.13;101732.24;1725539;81;21337;-73
2021/07/27 04:14:26;;;;;;;38.13;17.73;;;;;;;24.80;69.00;101737.21;1740962;81;21213;-74
2021/07/27 04:16:59;;;;;;;48.55;19.95;;;;;;;24.85;68.71;101735.61;1738102;82;21292;-77
2021/07/27 04:19:32;;;;;;;58.00;20.48;;;;;;;24.92;68.37;101736.81;1738669;82;21167;-74
2021/07/27 04:22:06;;;;;;;46.10;18.12;;;;;;;25.04;67.60;101729.89;1742859;81;21277;-74
2021/07/27 04:24:40;;;;;;;45.65;17.12;;;;;;;25.17;66.72;101730.33;1730805;82;21859;-73
2021/07/27 04:27:12;;;;;;;54.48;17.40;;;;;;;25.29;66.63;101729.72;1742305;82;21825;-74
2021/07/27 04:29:46;;;;;;;37.00;17.45;;;;;;;25.42;66.19;101728.12;1737769;81;21331;-73
2021/07/27 04:32:18;;;;;;;;;;;;;;;25.60;66.36;101732.63;1738519;82;21296;-74
2021/07/27 04:34:53;;;;;;;41.70;15.72;;;;;;;25.87;66.85;101729.44;1740593;82;20262;-74
2021/07/27 04:37:26;;;;;;;42.10;15.05;;;;;;;26.28;65.87;101721.74;1738800;78;21381;-72
2021/07/27 04:39:58;;;;;;;46.05;16.95;;;;;;;26.84;64.17;101722.77;1746149;82;21224;-77
2021/07/27 04:42:31;;;;;;;32.10;16.15;;;;;;;27.40;62.27;101718.79;1697758;83;21341;-72
2021/07/27 04:45:04;;;;;;;39.55;17.35;;;;;;;27.96;61.61;101713.25;1746811;82;21268;-69
2021/07/27 04:47:37;;;;;;;50.95;16.02;;;;;;;28.55;60.19;101718.04;1766184;81;21341;-69
2021/07/27 04:50:11;;;;;;;38.95;13.93;;;;;;;29.08;58.89;101713.50;1773173;81;21187;-68
2021/07/27 04:52:49;;;;;;;42.85;14.33;;;;;;;29.64;56.82;101717.56;1771309;79;21218;-71
2021/07/27 04:55:17;;;;;;;46.18;14.28;;;;;;;30.16;55.64;101722.61;1773229;81;21392;-69
2021/07/27 04:57:50;;;;;;;30.30;12.15;;;;;;;30.65;54.54;101708.78;1771842;79;21309;-68
2021/07/27 05:00:25;;;;;;;47.88;13.20;;;;;;;31.05;53.42;101714.50;1759045;81;21206;-69
2021/07/27 05:03:01;;;;;;;37.48;12.05;;;;;;;31.40;52.32;101711.06;1772556;81;21720;-78
2021/07/27 05:05:34;;;;;;;35.88;12.63;;;;;;;31.86;51.66;101709.21;1772273;79;21332;-73
2021/07/27 05:08:07;;;;;;;43.25;13.40;;;;;;;32.27;50.37;101708.43;1771737;81;21325;-75
2021/07/27 05:10:39;;;;;;;44.60;12.60;;;;;;;32.58;49.61;101707.55;1771133;81;21167;-71
2021/07/27 05:13:13;;;;;;;53.60;13.53;;;;;;;32.87;49.10;101708.30;1771022;81;21449;-70
2021/07/27 05:15:46;;;;;;;42.00;12.63;;;;;;;33.45;48.34;101701.59;1765624;81;21142;-72
2021/07/27 05:18:20;;;;;;;45.55;11.00;;;;;;;33.45;48.34;101701.59;1772134;81;21194;-70
2021/07/27 05:20:52;;;;;;;45.52;13.03;;;;;;;33.77;46.31;101708.03;1753084;79;21452;-73
2021/07/27 05:23:34;;;;;;;36.08;10.78;;;;;;;33.91;46.08;101713.97;1773706;81;22155;-73
2021/07/27 05:26:07;;;;;;;50.28;12.43;;;;;;;34.15;44.83;101713.42;1772595;81;21305;-72
2021/07/27 05:28:41;;;;;;;31.23;10.95;;;;;;;34.48;44.20;101716.89;1771797;81;21183;-71
2021/07/27 05:31:13;;;;;;;27.07;10.20;;;;;;;34.78;43.00;101721.31;1771935;81;21313;-71
2021/07/27 05:33:46;;;;;;;13.28;8.08;;;;;;;34.89;40.49;101713.58;1772051;81;21182;-73
2021/07/27 05:36:21;;;;;;;26.33;9.03;;;;;;;34.89;40.49;101713.58;1772193;81;21325;-74
2021/07/27 05:38:55;;;;;;;39.90;10.55;;;;;;;34.80;41.57;101708.77;1771605;81;21226;-72
2021/07/27 05:41:29;;;;;;;28.38;10.18;;;;;;;34.96;42.36;101712.19;1771681;81;21309;-73
2021/07/27 05:44:04;;;;;;;26.65;10.68;;;;;;;35.10;41.19;101712.91;1771643;81;21388;-73
2021/07/27 05:46:37;;;;;;;34.83;10.60;;;;;;;35.40;41.98;101723.67;1771644;81;21179;-73
2021/07/27 05:49:11;;;;;;;31.40;9.70;;;;;;;35.66;41.33;101730.02;1771777;81;21152;-72
2021/07/27 05:51:43;;;;;;;31.12;9.18;;;;;;;35.92;40.64;101728.30;1771604;81;21313;-72
2021/07/27 05:54:15;;;;;;;;;;;;;;;35.93;39.69;101727.06;1774282;80;21317;-72
2021/07/27 05:56:51;;;;;;;20.90;9.70;;;;;;;35.85;40.92;101725.38;1771511;80;20179;-73
2021/07/27 05:59:24;;;;;;;27.35;10.18;;;;;;;35.85;39.76;101724.55;1771577;81;21179;-72
2021/07/27 06:02:05;;;;;;;20.30;9.30;;;;;;;35.60;39.66;101722.13;1771614;81;21175;-73
2021/07/27 06:04:42;;;;;;;24.47;9.35;;;;;;;35.36;40.45;101725.09;1771508;81;21712;-74
2021/07/27 06:07:15;;;;;;;25.43;10.15;;;;;;;35.18;40.48;101727.02;1750793;79;21377;-70
2021/07/27 06:09:47;;;;;;;;;;;;;;;35.10;41.53;101731.09;1736826;82;21192;-69
2021/07/27 06:12:21;;;;;;;23.55;9.53;;;;;;;35.29;42.03;101728.55;1733772;82;20253;-70
2021/07/27 06:14:54;;;;;;;16.62;9.33;;;;;;;35.51;41.28;101723.12;1734066;82;21327;-69
2021/07/27 06:17:26;;;;;;;26.73;9.48;;;;;;;35.63;41.10;101722.78;1734516;82;21195;-73
2021/07/27 06:19:59;;;;;;;22.52;10.38;;;;;;;35.87;41.26;101727.24;1734029;82;21342;-70
2021/07/27 06:22:32;;;;;;;16.97;8.75;;;;;;;36.15;40.77;101735.20;1733665;83;21734;-72
2021/07/27 06:25:10;;;;;;;29.48;10.05;;;;;;;36.34;38.74;101736.31;1734088;82;21204;-70
2021/07/27 06:27:39;;;;;;;26.95;10.85;;;;;;;36.29;39.09;101741.89;1730967;82;21196;-73
2021/07/27 06:30:13;;;;;;;25.50;10.43;;;;;;;36.29;39.02;101730.31;1733871;82;21821;-69
2021/07/27 06:32:45;;;;;;;17.52;9.38;;;;;;;36.44;40.31;101737.80;1733706;82;21749;-71
2021/07/27 06:35:19;;;;;;;24.90;11.22;;;;;;;36.47;38.53;101736.97;1734108;82;21330;-70
2021/07/27 06:37:55;;;;;;;35.68;10.65;;;;;;;36.45;38.79;101725.58;1734084;82;21389;-70
2021/07/27 06:40:28;;;;;;;23.77;9.63;;;;;;;36.55;38.99;101734.28;1686306;84;21423;-76
2021/07/27 06:43:02;;;;;;;14.95;8.25;;;;;;;36.46;37.02;101738.20;1712213;83;21415;-76
2021/07/27 06:45:34;;;;;;;19.20;8.68;;;;;;;36.07;36.29;101734.97;1733686;83;21181;-70
2021/07/27 06:48:07;;;;;;;16.93;9.15;;;;;;;35.79;37.18;101742.92;1734089;82;21738;-76
2021/07/27 06:50:42;;;;;;;23.27;8.68;;;;;;;35.89;37.60;101736.97;1733587;82;21188;-77
2021/07/27 06:53:15;;;;;;;26.65;8.48;;;;;;;36.20;37.18;101741.47;1733871;82;21263;-70
2021/07/27 06:55:48;;;;;;;22.30;7.65;;;;;;;36.47;37.27;101728.27;1733886;82;21753;-70
2021/07/27 06:58:20;;;;;;;;;;;;;;;36.70;36.59;101733.09;1736936;82;21330;-70
2021/07/27 07:00:52;;;;;;;14.83;7.85;;;;;;;36.88;36.42;101723.79;1733772;82;20218;-70
2021/07/27 07:03:24;;;;;;;34.10;9.48;;;;;;;37.01;35.73;101724.18;1734569;82;21382;-70
2021/07/27 07:05:57;;;;;;;20.43;8.43;;;;;;;37.25;35.48;101729.99;1734062;82;21718;-69
2021/07/27 07:08:29;;;;;;;;;;;;;;;37.32;35.59;101729.98;1736483;82;21223;-75
2021/07/27 07:11:05;;;;;;;16.00;8.05;;;;;;;37.38;35.41;101731.84;1757181;79;20219;-73
2021/07/27 07:13:38;;;;;;;25.88;9.48;;;;;;;37.31;35.59;101727.48;1811691;79;21316;-73
2021/07/27 07:16:13;;;;;;;15.78;7.37;;;;;;;37.26;35.91;101735.99;1799218;79;21302;-74
2021/07/27 07:18:47;;;;;;;16.00;8.50;;;;;;;37.15;35.70;101732.27;1807368;79;21163;-72
2021/07/27 07:21:21;;;;;;;13.13;7.72;;;;;;;37.14;36.28;101734.98;1764180;81;21148;-72
2021/07/27 07:23:55;;;;;;;16.45;7.70;;;;;;;37.24;35.36;101732.70;1742135;82;21324;-73
2021/07/27 07:26:28;;;;;;;23.27;7.47;;;;;;;37.14;34.62;101736.42;1810688;79;21348;-74
2021/07/27 07:29:01;;;;;;;27.98;8.63;;;;;;;36.96;34.83;101735.58;1799618;79;21349;-72
2021/07/27 07:31:34;;;;;;;17.80;7.78;;;;;;;37.03;35.24;101736.20;1803626;79;21302;-73
2021/07/27 07:34:07;;;;;;;16.85;7.97;;;;;;;37.04;33.67;101728.55;1798634;80;21187;-73
2021/07/27 07:36:39;;;;;;;;;;;;;;;36.90;34.60;101734.34;1803015;80;21206;-74
2021/07/27 07:39:13;;;;;;;16.70;7.65;;;;;;;36.85;35.28;101733.94;1800705;80;20244;-72
2021/07/27 07:41:45;;;;;;;20.55;8.35;;;;;;;36.82;34.85;101733.30;1800506;80;21140;-73
2021/07/27 07:44:18;;;;;;;16.23;8.93;;;;;;;36.73;34.66;101729.36;1800196;80;21167;-73
2021/07/27 07:46:51;;;;;;;;;;;;;;;36.56;35.92;101727.27;1803228;78;21286;-73
2021/07/27 07:49:23;;;;;;;29.70;11.28;;;;;;;36.48;37.64;101723.33;1800709;78;20244;-73
2021/07/27 07:51:56;;;;;;;25.05;10.58;;;;;;;36.31;38.70;101723.52;1800588;80;21132;-72
2021/07/27 07:54:32;;;;;;;22.98;10.68;;;;;;;36.26;39.36;101722.45;1800530;79;21160;-72
2021/07/27 07:57:05;;;;;;;37.83;11.28;;;;;;;36.11;39.14;101724.24;1800397;78;21159;-72
2021/07/27 07:59:38;;;;;;;25.12;10.32;;;;;;;35.96;40.19;101727.70;1800459;79;21383;-70
2021/07/27 08:02:12;;;;;;;25.95;9.75;;;;;;;35.82;38.66;101720.42;1800488;80;21302;-72
2021/07/27 08:04:45;;;;;;;22.87;9.50;;;;;;;35.70;38.80;101731.52;1800194;80;21159;-75
2021/07/27 08:07:18;;;;;;;19.75;10.32;;;;;;;35.60;39.36;101725.86;1800188;79;21158;-71
2021/07/27 08:09:52;;;;;;;21.50;9.68;;;;;;;35.53;39.52;101730.16;1800179;80;21167;-69
2021/07/27 08:12:25;;;;;;;19.00;8.58;;;;;;;35.44;40.03;101725.34;1800069;79;21815;-74
2021/07/27 08:14:58;;;;;;;18.23;8.45;;;;;;;35.38;38.52;101724.07;1800218;80;21234;-75
2021/07/27 08:17:30;;;;;;;20.15;8.53;;;;;;;35.33;38.71;101723.00;1800023;80;21286;-73
2021/07/27 08:20:03;;;;;;;;;;;;;;;35.29;38.89;101725.06;1802663;80;21163;-70
2021/07/27 08:22:43;;;;;;;20.68;10.00;;;;;;;35.30;40.21;101722.98;1800091;80;20191;-70
2021/07/27 08:25:17;;;;;;;27.50;10.70;;;;;;;35.27;39.68;101720.28;1799958;80;21724;-69
2021/07/27 08:27:51;;;;;;;22.32;9.60;;;;;;;35.26;40.39;101722.15;1799876;80;21302;-70
2021/07/27 08:30:25;;;;;;;14.60;8.83;;;;;;;35.12;37.96;101722.00;1799876;80;21318;-69
2021/07/27 08:32:57;;;;;;;21.87;8.48;;;;;;;35.06;37.67;101725.89;1799844;80;21828;-71
2021/07/27 08:35:30;;;;;;;23.52;10.98;;;;;;;35.02;37.95;101732.88;1800077;80;21211;-70
2021/07/27 08:38:04;;;;;;;31.17;11.35;;;;;;;35.02;38.79;101734.33;1721098;83;21413;-75
2021/07/27 08:40:39;;;;;;;23.12;9.68;;;;;;;35.01;40.15;101736.38;1721381;83;21313;-75
2021/07/27 08:43:16;;;;;;;22.35;8.95;;;;;;;34.88;40.33;101733.59;1728679;82;21439;-70
2021/07/27 08:45:51;;;;;;;22.05;7.20;;;;;;;34.78;39.57;101735.77;1736045;80;21185;-71
2021/07/27 08:48:27;;;;;;;23.20;10.50;;;;;;;34.68;37.34;101745.15;1719445;82;21182;-73
2021/07/27 08:51:00;;;;;;;28.65;10.45;;;;;;;34.66;38.59;101741.00;1742366;81;21317;-71
2021/07/27 08:53:34;;;;;;;30.45;11.85;;;;;;;34.60;41.28;101739.70;1742372;81;21363;-71
2021/07/27 08:56:09;;;;;;;28.20;9.78;;;;;;;34.42;42.27;101743.86;1742546;82;21167;-72
2021/07/27 08:58:42;;;;;;;29.00;10.15;;;;;;;34.27;40.96;101737.70;1742440;82;21376;-72
2021/07/27 09:01:16;;;;;;;16.93;8.30;;;;;;;34.19;42.38;101727.29;1717958;82;21194;-72
2021/07/27 09:03:49;;;;;;;18.82;8.10;;;;;;;34.13;38.89;101728.02;1745941;81;21320;-70
2021/07/27 09:06:24;;;;;;;12.82;7.53;;;;;;;34.07;38.60;101726.72;1738263;81;21146;-71
2021/07/27 09:09:09;;;;;;;14.30;5.83;;;;;;;34.09;38.77;101734.39;1761142;81;21167;-71
2021/07/27 09:11:47;;;;;;;13.53;5.72;;;;;;;34.05;36.34;101727.11;1738237;82;21205;-73
2021/07/27 09:14:22;;;;;;;18.20;6.97;;;;;;;34.08;35.04;101726.93;1751618;79;21187;-70
2021/07/27 09:16:57;;;;;;;11.70;6.67;;;;;;;34.04;36.82;101731.85;1736601;81;21218;-76
2021/07/27 09:19:42;;;;;;;20.55;5.83;;;;;;;33.90;34.99;101725.89;1736327;82;21768;-69
2021/07/27 09:22:15;;;;;;;17.10;6.28;;;;;;;33.88;35.84;101724.86;1734732;82;21194;-75
2021/07/27 09:24:47;;;;;;;12.37;5.53;;;;;;;33.94;36.87;101723.29;1736440;82;21336;-72
2021/07/27 09:27:30;;;;;;;12.85;6.12;;;;;;;33.96;36.54;101722.88;1734546;83;21357;-78
2021/07/27 09:30:04;;;;;;;17.00;6.28;;;;;;;33.95;36.38;101721.22;1735556;81;21870;-70
2021/07/27 09:32:36;;;;;;;29.20;6.30;;;;;;;33.88;36.95;101715.37;1736532;82;21850;-75
2021/07/27 09:35:09;;;;;;;14.38;6.50;;;;;;;33.82;36.59;101719.23;1730669;81;21235;-69
2021/07/27 09:37:42;;;;;;;20.48;6.62;;;;;;;33.73;36.12;101714.33;1736477;81;21198;-69
2021/07/27 09:40:15;;;;;;;;;;;;;;;33.49;36.31;101717.70;1738987;82;21198;-74
2021/07/27 09:43:10;;;;;;;13.22;7.70;;;;;;;33.30;37.40;101710.64;1736535;81;20226;-71
2021/07/27 09:45:50;;;;;;;9.73;7.42;;;;;;;33.13;38.29;101707.47;1742658;82;21801;-73
2021/07/27 09:48:23;;;;;;;14.55;7.35;;;;;;;33.00;37.83;101702.53;1742882;81;21862;-72
2021/07/27 09:50:58;;;;;;;;;;;;;;;32.92;37.90;101704.24;1745341;81;21707;-73
2021/07/27 09:53:31;;;;;;;10.55;6.00;;;;;;;32.80;37.85;101708.77;1742659;82;20268;-72
2021/07/27 09:56:08;;;;;;;14.75;5.90;;;;;;;32.73;37.26;101704.31;1742886;82;21319;-75
2021/07/27 09:58:41;;;;;;;9.15;6.60;;;;;;;32.68;37.39;101714.70;1720838;82;21324;-73
2021/07/27 10:01:25;;;;;;;15.60;6.05;;;;;;;32.62;37.45;101710.48;1742980;82;21335;-75
2021/07/27 10:04:03;;;;;;;12.78;6.55;;;;;;;32.65;37.73;101715.48;1742686;81;21320;-71
2021/07/27 10:06:47;;;;;;;13.30;6.42;;;;;;;32.59;37.77;101709.23;1742672;81;21316;-74
2021/07/27 10:09:28;;;;;;;10.60;4.70;;;;;;;32.53;37.81;101716.53;1740996;82;21375;-73
2021/07/27 10:12:16;;;;;;;8.13;5.60;;;;;;;32.45;35.55;101721.09;1743005;82;21293;-73
2021/07/27 10:14:48;;;;;;;14.13;5.83;;;;;;;32.45;36.15;101719.03;1742858;81;21348;-72
2021/07/27 10:17:21;;;;;;;13.03;6.00;;;;;;;32.47;36.48;101718.66;1743163;82;21384;-74
2021/07/27 10:19:58;;;;;;;13.45;5.30;;;;;;;32.41;36.80;101721.03;1742752;82;21344;-73
2021/07/27 10:22:41;;;;;;;13.25;6.37;;;;;;;32.31;36.95;101716.50;1742830;82;21362;-72
2021/07/27 10:25:17;;;;;;;11.33;5.55;;;;;;;32.29;37.18;101720.38;1742782;82;21355;-72
2021/07/27 10:27:53;;;;;;;7.50;4.83;;;;;;;32.21;36.86;101708.48;1743133;82;21229;-73
2021/07/27 10:30:32;;;;;;;11.33;4.90;;;;;;;32.12;35.50;101715.92;1738879;82;21351;-74
2021/07/27 10:33:05;;;;;;;12.68;5.08;;;;;;;32.13;35.24;101716.73;1742659;82;21842;-75
2021/07/27 10:35:38;;;;;;;9.25;5.75;;;;;;;32.18;36.08;101710.08;1742744;81;21675;-76
2021/07/27 10:38:16;;;;;;;26.33;5.80;;;;;;;32.21;36.68;101703.55;1742928;82;21311;-70
2021/07/27 10:40:50;;;;;;;10.58;5.58;;;;;;;32.25;36.82;101706.52;1742618;82;21869;-70
2021/07/27 10:43:26;;;;;;;10.35;4.53;;;;;;;32.25;36.22;101710.24;1742658;81;21375;-77
2021/07/27 10:46:00;;;;;;;8.53;4.45;;;;;;;32.25;35.21;101707.95;1742536;82;21173;-70
2021/07/27 10:48:35;;;;;;;13.38;5.97;;;;;;;32.29;35.72;101708.87;1741064;80;21313;-73
2021/07/27 10:51:09;;;;;;;15.72;4.62;;;;;;;32.29;36.48;101709.71;1780750;80;21181;-72
2021/07/27 10:53:42;;;;;;;5.95;4.67;;;;;;;32.23;36.82;101708.33;1781671;80;21288;-73
2021/07/27 10:56:14;;;;;;;11.55;4.95;;;;;;;32.20;36.41;101710.52;1778352;80;21684;-73
2021/07/27 10:58:51;;;;;;;7.75;4.35;;;;;;;32.15;36.54;101700.76;1771546;81;21178;-73
2021/07/27 11:01:32;;;;;;;12.28;4.08;;;;;;;32.08;36.68;101702.06;1771502;81;21190;-73
2021/07/27 11:04:11;;;;;;;11.43;5.00;;;;;;;31.99;36.35;101701.48;1771581;81;21186;-75
2021/07/27 11:06:46;;;;;;;9.15;4.15;;;;;;;31.98;36.78;101706.17;1771559;81;21652;-73
2021/07/27 11:09:18;;;;;;;;;;;;;;;32.03;35.27;101699.49;1774001;81;21138;-73
2021/07/27 11:11:50;;;;;;;20.05;5.78;;;;;;;32.08;35.67;101695.50;1771491;81;20538;-72
2021/07/27 11:14:25;;;;;;;23.02;5.65;;;;;;;32.04;36.15;101693.96;1771331;81;21154;-75
2021/07/27 11:17:03;;;;;;;9.78;4.25;;;;;;;32.00;36.37;101699.42;1771913;81;21796;-74
2021/07/27 11:19:35;;;;;;;19.12;5.70;;;;;;;31.99;35.64;101699.20;1771347;81;21320;-74
2021/07/27 11:22:09;;;;;;;9.08;4.33;;;;;;;31.98;35.90;101691.20;1771436;81;21185;-73
2021/07/27 11:24:42;;;;;;;17.95;5.20;;;;;;;31.95;35.78;101697.70;1771590;81;21266;-73
2021/07/27 11:27:19;;;;;;;8.40;4.40;;;;;;;31.96;36.24;101694.23;1771388;81;21205;-73
2021/07/27 11:29:59;;;;;;;11.18;4.65;;;;;;;32.01;35.52;101688.98;1770817;81;21293;-74
2021/07/27 11:32:56;;;;;;;9.05;5.55;;;;;;;32.02;35.78;101686.33;1771291;81;21150;-73
2021/07/27 11:35:31;;;;;;;13.18;4.28;;;;;;;31.92;36.28;101692.73;1771347;81;21154;-71
2021/07/27 11:38:05;;;;;;;8.73;4.37;;;;;;;31.82;35.84;101693.33;1767971;81;21119;-73
2021/07/27 11:40:41;;;;;;;16.27;4.87;;;;;;;31.84;35.76;101680.83;1771812;81;21289;-75
2021/07/27 11:43:13;;;;;;;17.50;4.62;;;;;;;31.85;35.60;101689.68;1748204;81;21143;-72
2021/07/27 11:45:46;;;;;;;14.75;4.70;;;;;;;31.82;35.78;101680.39;1771856;81;21794;-73
2021/07/27 11:48:19;;;;;;;10.90;4.00;;;;;;;31.77;35.79;101673.51;1718966;78;21804;-69
2021/07/27 11:50:57;;;;;;;20.02;4.95;;;;;;;31.80;35.80;101685.70;1707753;83;21352;-78
2021/07/27 11:53:37;;;;;;;16.95;4.75;;;;;;;31.81;35.87;101676.45;1677909;85;21199;-78
2021/07/27 11:56:18;;;;;;;7.10;3.70;;;;;;;31.81;35.49;101682.20;1738772;82;21182;-71
2021/07/27 11:59:03;;;;;;;5.47;3.90;;;;;;;31.75;35.47;101677.37;1743912;82;21388;-78
2021/07/27 12:01:43;;;;;;;7.37;4.45;;;;;;;31.71;34.51;101677.91;1744452;82;21325;-70
2021/07/27 12:04:16;;;;;;;12.50;4.20;;;;;;;31.68;35.03;101680.08;1746014;82;21755;-69
2021/07/27 12:06:54;;;;;;;9.68;3.90;;;;;;;31.62;33.51;101679.31;1746325;82;21894;-71